Time;durP1;ratioP1;P1;durP2;ratioP2;P2;SDS_P1;SDS_P2;PMS_P1;PMS_P2;Temp;Humidity;BMP_temperature;BMP_pressure;BME280_temperature;BME280_humidity;BME280_pressure;Samples;Min_cycle;Max_cycle;Signal;HPM_P1;HPM_P2
2022/11/05 00:09:28;;;;;;;33.65;20.52;;;9.10;99.90;;;;;;2049463;29;20211;-79
2022/11/05 00:10:30;;;;;;;34.28;20.58;;;9.10;99.90;;;;;;2049694;29;20106;-77
2022/11/05 00:16:52;;;;;;;36.65;21.35;;;9.10;99.90;;;;;;2057841;28;20030;-79
2022/11/05 00:17:53;;;;;;;33.25;21.02;;;9.10;99.90;;;;;;2058191;28;20034;-77
2022/11/05 00:19:05;;;;;;;34.40;20.55;;;9.10;99.90;;;;;;2058070;28;20022;-80
2022/11/05 00:20:08;;;;;;;36.40;21.48;;;9.20;99.90;;;;;;2058357;28;20157;-79
2022/11/05 00:25:12;;;;;;;34.95;21.58;;;9.20;99.90;;;;;;2050274;28;20046;-76
2022/11/05 00:25:20;;;;;;;36.25;21.70;;;9.20;99.90;;;;;;2059553;28;20031;-77
2022/11/05 00:26:21;;;;;;;33.92;20.83;;;9.20;99.90;;;;;;2056406;28;20061;-76
2022/11/05 00:27:22;;;;;;;34.72;21.35;;;9.20;99.90;;;;;;2058116;28;20485;-78
2022/11/05 00:28:24;;;;;;;37.95;22.10;;;9.20;99.90;;;;;;2058602;28;20023;-77
2022/11/05 00:29:25;;;;;;;39.47;23.10;;;9.20;99.90;;;;;;2058515;28;20027;-77
2022/11/05 00:30:26;;;;;;;39.70;22.25;;;9.20;99.90;;;;;;2056723;28;20058;-77
2022/11/05 00:31:27;;;;;;;40.58;22.70;;;9.20;99.90;;;;;;2050079;28;20110;-78
2022/11/05 00:32:28;;;;;;;35.25;21.42;;;9.20;99.90;;;;;;2057843;28;20125;-78
2022/11/05 00:33:28;;;;;;;34.45;21.48;;;9.20;99.90;;;;;;2057416;28;20031;-78
2022/11/05 00:34:29;;;;;;;34.63;21.60;;;9.20;99.90;;;;;;2059317;28;20154;-78
2022/11/05 00:35:30;;;;;;;36.05;21.67;;;9.20;99.90;;;;;;2060232;28;20026;-76
2022/11/05 00:36:30;;;;;;;39.28;23.10;;;9.20;99.90;;;;;;2062023;28;20030;-77
2022/11/05 00:37:31;;;;;;;37.92;23.13;;;9.20;99.90;;;;;;2061046;28;20128;-79
2022/11/05 00:38:32;;;;;;;38.10;22.33;;;9.20;99.90;;;;;;2061732;28;20031;-77
2022/11/05 00:39:33;;;;;;;35.00;21.58;;;9.20;99.90;;;;;;2062766;28;20125;-77
2022/11/05 00:40:34;;;;;;;34.80;21.45;;;9.20;99.90;;;;;;2060160;28;20031;-78
2022/11/05 00:41:35;;;;;;;35.22;21.95;;;9.20;99.90;;;;;;2062157;28;20031;-77
2022/11/05 00:45:14;;;;;;;37.70;23.00;;;9.20;99.90;;;;;;2058910;28;20034;-78
2022/11/05 00:46:15;;;;;;;40.28;23.67;;;9.20;99.90;;;;;;2066319;28;20029;-76
2022/11/05 00:49:54;;;;;;;34.80;21.77;;;9.20;99.90;;;;;;2052846;28;20028;-78
2022/11/05 00:50:54;;;;;;;36.17;22.92;;;9.20;99.90;;;;;;2058810;28;20038;-79
2022/11/05 00:52:54;;;;;;;36.90;22.63;;;9.20;99.90;;;;;;2059812;28;20703;-78
2022/11/05 00:53:19;;;;;;;34.85;21.75;;;9.20;99.90;;;;;;2060051;28;20078;-78
2022/11/05 00:54:19;;;;;;;35.72;21.38;;;9.20;99.90;;;;;;2051761;28;20035;-76
2022/11/05 00:55:27;;;;;;;35.42;22.25;;;9.20;99.90;;;;;;2044302;28;20055;-77
2022/11/05 00:56:27;;;;;;;38.28;23.00;;;9.20;99.90;;;;;;2053551;28;20039;-77
2022/11/05 00:57:28;;;;;;;40.53;23.17;;;9.20;99.90;;;;;;2051064;28;20031;-77
2022/11/05 00:58:29;;;;;;;37.47;22.88;;;9.20;99.90;;;;;;2057176;28;20799;-77
2022/11/05 00:59:29;;;;;;;39.08;24.75;;;9.20;99.90;;;;;;2057108;28;20033;-77
2022/11/05 01:00:34;;;;;;;37.92;23.73;;;9.20;99.90;;;;;;2057461;28;20055;-76
2022/11/05 01:01:35;;;;;;;42.22;24.77;;;9.20;99.90;;;;;;2058329;28;20022;-78
2022/11/05 01:02:35;;;;;;;41.88;24.20;;;9.20;99.90;;;;;;2058935;28;20138;-75
2022/11/05 01:03:38;;;;;;;42.28;25.02;;;9.20;99.90;;;;;;2058085;28;20414;-77
2022/11/05 01:04:38;;;;;;;41.53;24.92;;;9.20;99.90;;;;;;2057726;28;20030;-77
2022/11/05 01:05:45;;;;;;;43.58;25.58;;;9.20;99.90;;;;;;2058568;28;20038;-77
2022/11/05 01:06:45;;;;;;;43.55;25.55;;;9.20;99.90;;;;;;2057553;28;20358;-77
2022/11/05 01:07:46;;;;;;;43.88;25.85;;;9.20;99.90;;;;;;2057224;28;20042;-77
2022/11/05 01:08:50;;;;;;;44.65;26.42;;;9.20;99.90;;;;;;2057006;28;20037;-77
2022/11/05 01:09:50;;;;;;;43.60;26.35;;;9.20;99.90;;;;;;2057152;28;20058;-76
2022/11/05 01:10:54;;;;;;;40.55;24.58;;;9.10;99.90;;;;;;2057955;28;20532;-77
2022/11/05 01:11:54;;;;;;;39.60;24.00;;;9.20;99.90;;;;;;2057376;28;20754;-77
2022/11/05 01:12:56;;;;;;;36.92;23.20;;;9.20;99.90;;;;;;2057080;28;20039;-77
2022/11/05 01:13:56;;;;;;;40.47;24.50;;;9.20;99.90;;;;;;2057421;28;20034;-77
2022/11/05 01:14:57;;;;;;;39.60;24.33;;;9.20;99.90;;;;;;2056795;28;20031;-77
2022/11/05 01:16:07;;;;;;;37.08;23.13;;;9.20;99.90;;;;;;2049227;28;20027;-77
2022/11/05 01:17:07;;;;;;;37.17;23.20;;;9.20;99.90;;;;;;2056813;28;20138;-77
2022/11/05 01:18:09;;;;;;;37.53;22.13;;;9.20;99.90;;;;;;2048774;29;20027;-78
2022/11/05 01:19:12;;;;;;;32.53;22.27;;;9.30;99.90;;;;;;2056780;28;20475;-78
2022/11/05 01:20:13;;;;;;;38.58;24.70;;;9.20;99.90;;;;;;2056955;28;20106;-77
2022/11/05 01:21:14;;;;;;;39.70;25.25;;;9.30;99.90;;;;;;2056402;28;20031;-77
2022/11/05 01:22:15;;;;;;;38.72;23.58;;;9.20;99.90;;;;;;2049045;28;20529;-78
2022/11/05 01:23:17;;;;;;;42.28;25.25;;;9.20;99.90;;;;;;2056803;28;20039;-77
2022/11/05 01:24:20;;;;;;;41.85;25.58;;;9.20;99.90;;;;;;2048518;28;20031;-77
2022/11/05 01:25:21;;;;;;;41.65;24.23;;;9.20;99.90;;;;;;2049068;28;20493;-77
2022/11/05 01:26:25;;;;;;;41.58;25.90;;;9.20;99.90;;;;;;2056813;28;20027;-76
2022/11/05 01:27:26;;;;;;;42.88;25.27;;;9.20;99.90;;;;;;2056592;28;20027;-76
2022/11/05 01:28:30;;;;;;;41.35;24.00;;;9.20;99.90;;;;;;2056560;28;20073;-78
2022/11/05 01:29:30;;;;;;;41.10;24.33;;;9.30;99.90;;;;;;2064479;28;20022;-79
2022/11/05 01:30:31;;;;;;;44.95;25.88;;;9.20;99.90;;;;;;2057618;28;20026;-78
2022/11/05 01:31:34;;;;;;;43.13;26.08;;;9.30;99.90;;;;;;2056962;28;20030;-77
2022/11/05 01:32:35;;;;;;;45.05;27.05;;;9.30;99.90;;;;;;2056688;28;20031;-76
2022/11/05 01:33:36;;;;;;;45.78;27.33;;;9.20;99.90;;;;;;2057176;28;20034;-76
2022/11/05 01:34:40;;;;;;;46.13;26.42;;;9.20;99.90;;;;;;2057736;28;20062;-77
2022/11/05 01:35:40;;;;;;;44.90;26.20;;;9.20;99.90;;;;;;2056624;28;20023;-77
2022/11/05 01:36:41;;;;;;;45.63;26.48;;;9.20;99.90;;;;;;2056364;28;20642;-77
2022/11/05 01:37:42;;;;;;;45.50;26.80;;;9.20;99.90;;;;;;2056623;28;20027;-76
2022/11/05 01:38:43;;;;;;;43.28;26.83;;;9.20;99.90;;;;;;2048495;28;20035;-77
2022/11/05 01:39:46;;;;;;;45.08;27.42;;;9.20;99.90;;;;;;2056665;28;20042;-77
2022/11/05 01:40:47;;;;;;;42.33;25.67;;;9.20;99.90;;;;;;2056652;28;20481;-76
2022/11/05 01:41:48;;;;;;;41.40;24.63;;;9.20;99.90;;;;;;2048736;28;20038;-75
2022/11/05 01:42:48;;;;;;;40.65;25.23;;;9.20;99.90;;;;;;2048406;29;20039;-77
2022/11/05 01:43:55;;;;;;;40.20;24.58;;;9.20;99.90;;;;;;2057047;28;20405;-78
2022/11/05 01:45:11;;;;;;;43.55;26.50;;;9.20;99.90;;;;;;2056662;28;20022;-77
2022/11/05 01:46:12;;;;;;;42.83;26.08;;;9.30;99.90;;;;;;2049352;28;20035;-77
2022/11/05 01:47:21;;;;;;;44.30;26.13;;;9.20;99.90;;;;;;2048854;28;20035;-78
2022/11/05 01:48:34;;;;;;;45.72;27.00;;;9.20;99.90;;;;;;2056313;28;20042;-76
2022/11/05 01:49:38;;;;;;;45.67;27.38;;;9.20;99.90;;;;;;2057280;28;20082;-78
2022/11/05 01:51:05;;;;;;;49.33;27.85;;;9.20;99.90;;;;;;2056544;28;20035;-76
2022/11/05 01:52:06;;;;;;;41.50;24.83;;;9.20;99.90;;;;;;2056563;28;20081;-78
2022/11/05 01:53:47;;;;;;;46.22;26.75;;;9.20;99.90;;;;;;2056563;28;20042;-77
2022/11/05 01:54:47;;;;;;;46.35;25.90;;;9.20;99.90;;;;;;2057200;28;20114;-76
2022/11/05 01:56:15;;;;;;;46.85;25.85;;;9.20;99.90;;;;;;2057077;28;20086;-77
2022/11/05 01:57:16;;;;;;;42.63;24.27;;;9.20;99.90;;;;;;2057412;28;20098;-77
2022/11/05 01:58:22;;;;;;;40.13;23.83;;;9.20;99.90;;;;;;2057426;28;20062;-77
2022/11/05 01:59:26;;;;;;;38.63;22.60;;;9.20;99.90;;;;;;2056938;28;20410;-78
2022/11/05 02:00:27;;;;;;;37.53;21.90;;;9.20;99.90;;;;;;2057866;28;20026;-77
2022/11/05 02:01:28;;;;;;;37.70;21.92;;;9.20;99.90;;;;;;2057772;28;20027;-78
2022/11/05 02:02:30;;;;;;;36.35;21.45;;;9.10;99.90;;;;;;2058165;28;20034;-78
2022/11/05 02:03:31;;;;;;;36.33;21.20;;;9.10;99.90;;;;;;2049696;28;20031;-78
2022/11/05 02:04:52;;;;;;;36.25;21.40;;;9.20;99.90;;;;;;2057837;28;20027;-77
2022/11/05 02:05:56;;;;;;;34.90;21.25;;;9.20;99.90;;;;;;2058881;28;20711;-77
2022/11/05 02:06:57;;;;;;;37.65;20.83;;;9.20;99.90;;;;;;2053693;28;20041;-78
2022/11/05 02:07:58;;;;;;;35.80;20.63;;;9.10;99.90;;;;;;2053245;28;20039;-75
2022/11/05 02:09:01;;;;;;;33.70;20.23;;;9.10;99.90;;;;;;2053608;28;20031;-77
2022/11/05 02:10:07;;;;;;;37.42;20.45;;;9.10;99.90;;;;;;2046174;28;20095;-78
2022/11/05 02:11:09;;;;;;;34.15;21.42;;;9.10;99.90;;;;;;2054270;28;20035;-75
2022/11/05 02:12:13;;;;;;;35.25;21.38;;;9.10;99.90;;;;;;2063066;28;20038;-79
2022/11/05 02:13:14;;;;;;;34.35;20.25;;;9.10;99.90;;;;;;2061555;28;20039;-77
2022/11/05 02:14:20;;;;;;;32.67;20.42;;;9.10;99.90;;;;;;2060451;28;20061;-78
2022/11/05 02:15:34;;;;;;;35.78;20.70;;;9.10;99.90;;;;;;2052693;28;20378;-78
2022/11/05 02:16:48;;;;;;;35.78;21.48;;;9.10;99.90;;;;;;2052869;28;20479;-78
2022/11/05 02:18:24;;;;;;;36.97;22.10;;;9.20;99.90;;;;;;2056678;28;20395;-79
2022/11/05 02:20:01;;;;;;;36.72;21.60;;;9.20;99.90;;;;;;2060518;28;20034;-80
2022/11/05 02:21:15;;;;;;;36.42;21.60;;;9.10;99.90;;;;;;2062565;28;20022;-76
2022/11/05 02:22:54;;;;;;;35.75;21.45;;;9.10;99.90;;;;;;2061962;28;20437;-80
2022/11/05 02:24:23;;;;;;;35.78;21.80;;;9.10;99.90;;;;;;2051212;28;20063;-78
2022/11/05 02:25:45;;;;;;;40.17;22.42;;;9.10;99.90;;;;;;2055720;28;20035;-78
2022/11/05 02:27:07;;;;;;;35.95;21.30;;;9.10;99.90;;;;;;2060201;28;20034;-77
2022/11/05 02:28:31;;;;;;;36.08;22.05;;;9.10;99.90;;;;;;2059127;28;20700;-78
2022/11/05 02:29:50;;;;;;;40.75;22.15;;;9.10;99.90;;;;;;2059643;28;20591;-78
2022/11/05 02:31:02;;;;;;;37.22;22.15;;;9.20;99.90;;;;;;2051458;28;20027;-78
2022/11/05 02:32:17;;;;;;;36.38;21.60;;;9.10;99.90;;;;;;2052577;28;20054;-77
2022/11/05 02:33:55;;;;;;;37.15;22.08;;;9.20;99.90;;;;;;2059456;28;20031;-78
2022/11/05 02:35:19;;;;;;;36.45;22.35;;;9.20;99.90;;;;;;2044025;28;20031;-76
2022/11/05 02:36:34;;;;;;;36.85;21.20;;;9.20;99.90;;;;;;2042799;29;20059;-78
2022/11/05 02:37:39;;;;;;;43.67;24.60;;;9.20;99.90;;;;;;2059558;28;20018;-81
2022/11/05 02:38:51;;;;;;;39.80;23.77;;;9.20;99.90;;;;;;2051529;28;20032;-78
2022/11/05 02:40:05;;;;;;;39.40;22.38;;;9.20;99.90;;;;;;2044352;28;20069;-78
2022/11/05 02:41:15;;;;;;;39.13;23.20;;;9.20;99.90;;;;;;2045094;29;20027;-77
2022/11/05 02:42:51;;;;;;;39.92;22.92;;;9.20;99.90;;;;;;2053084;28;20037;-79
2022/11/05 02:44:06;;;;;;;41.72;23.23;;;9.20;99.90;;;;;;2036875;28;20075;-77
2022/11/05 02:45:26;;;;;;;39.15;22.35;;;9.20;99.90;;;;;;2059352;28;20030;-77
2022/11/05 02:46:55;;;;;;;37.55;22.83;;;9.10;99.90;;;;;;2051521;28;20070;-76
2022/11/05 02:48:01;;;;;;;38.28;23.42;;;9.20;99.90;;;;;;2055872;28;20019;-79
2022/11/05 02:49:08;;;;;;;40.80;23.15;;;9.20;99.90;;;;;;2052811;28;20063;-76
2022/11/05 02:50:26;;;;;;;35.53;22.02;;;9.20;99.90;;;;;;2052064;28;20024;-76
2022/11/05 02:51:35;;;;;;;40.70;22.92;;;9.20;99.90;;;;;;2048261;28;20541;-77
2022/11/05 02:52:45;;;;;;;39.10;22.85;;;9.20;99.90;;;;;;2052202;28;20033;-80
2022/11/05 02:54:05;;;;;;;38.90;23.00;;;9.20;99.90;;;;;;2059085;28;20027;-80
2022/11/05 02:55:26;;;;;;;39.93;23.17;;;9.20;99.90;;;;;;2059448;28;20031;-78
2022/11/05 02:56:29;;;;;;;;;;;9.20;99.90;;;;;;2059348;28;20749;-80
2022/11/05 02:57:35;;;;;;;36.13;21.33;;;9.20;99.90;;;;;;2051658;28;20488;-77
2022/11/05 02:58:35;;;;;;;35.75;22.27;;;9.20;99.90;;;;;;2044328;28;20036;-78
2022/11/05 02:59:36;;;;;;;36.75;22.23;;;9.20;99.90;;;;;;2043492;29;20047;-79
2022/11/05 03:00:50;;;;;;;38.40;23.25;;;9.20;99.90;;;;;;2059276;28;20042;-77
2022/11/05 03:01:52;;;;;;;36.00;22.45;;;9.20;99.90;;;;;;2060088;28;20023;-78
2022/11/05 03:02:53;;;;;;;35.88;22.33;;;9.20;99.90;;;;;;2059217;28;20082;-78
2022/11/05 03:03:59;;;;;;;33.35;21.10;;;9.20;99.90;;;;;;2059232;28;20094;-79
2022/11/05 03:05:01;;;;;;;31.08;20.58;;;9.20;99.90;;;;;;2051209;28;20032;-78
2022/11/05 03:06:29;;;;;;;34.03;20.77;;;9.20;99.90;;;;;;2051826;28;20430;-77
2022/11/05 03:07:54;;;;;;;32.80;20.60;;;9.20;99.90;;;;;;2059575;28;20453;-78
2022/11/05 03:09:19;;;;;;;37.53;22.10;;;9.20;99.90;;;;;;2059322;28;20022;-75
2022/11/05 03:10:41;;;;;;;34.17;21.17;;;9.20;99.90;;;;;;2059855;28;20034;-77
2022/11/05 03:11:44;;;;;;;32.58;20.50;;;9.20;99.90;;;;;;2064108;28;20062;-76
2022/11/05 03:13:00;;;;;;;35.90;22.13;;;9.20;99.90;;;;;;2064248;28;20031;-77
2022/11/05 03:14:20;;;;;;;34.67;21.13;;;9.20;99.90;;;;;;2063576;28;20039;-77
2022/11/05 03:15:49;;;;;;;34.53;20.90;;;9.20;99.90;;;;;;2064399;28;20022;-77
2022/11/05 03:17:22;;;;;;;35.13;20.67;;;9.20;99.90;;;;;;2063904;28;20035;-76
2022/11/05 03:18:47;;;;;;;30.65;19.85;;;9.20;99.90;;;;;;2055985;28;20030;-77
2022/11/05 03:20:00;;;;;;;36.03;22.05;;;9.20;99.90;;;;;;2046720;28;20030;-74
2022/11/05 03:21:22;;;;;;;33.10;20.65;;;9.20;99.90;;;;;;2051735;28;20051;-78
2022/11/05 03:22:32;;;;;;;35.38;21.65;;;9.20;99.90;;;;;;2063338;28;20042;-78
2022/11/05 03:23:38;;;;;;;36.90;21.48;;;9.20;99.90;;;;;;2063831;28;20082;-77
2022/11/05 03:24:45;;;;;;;34.35;21.80;;;9.20;99.90;;;;;;2063893;28;20026;-77
2022/11/05 03:25:54;;;;;;;32.88;21.17;;;9.20;99.90;;;;;;2063961;28;20019;-76
2022/11/05 03:27:09;;;;;;;33.60;20.83;;;9.20;99.90;;;;;;2061736;28;20031;-79
2022/11/05 03:28:12;;;;;;;32.72;20.13;;;9.20;99.90;;;;;;2051495;28;20469;-78
2022/11/05 03:29:27;;;;;;;29.23;19.48;;;9.20;99.90;;;;;;2052809;28;20027;-78
2022/11/05 03:30:29;;;;;;;30.30;19.15;;;9.20;99.90;;;;;;2060200;28;20034;-77
2022/11/05 03:31:31;;;;;;;31.05;19.40;;;9.20;99.90;;;;;;2060146;28;20034;-79
2022/11/05 03:32:36;;;;;;;28.60;17.88;;;9.20;99.90;;;;;;2059726;28;20504;-78
2022/11/05 03:33:38;;;;;;;32.67;20.02;;;9.20;99.90;;;;;;2051777;28;20067;-78
2022/11/05 03:34:45;;;;;;;31.30;20.27;;;9.20;99.90;;;;;;2060935;28;20403;-77
2022/11/05 03:35:52;;;;;;;30.17;19.13;;;9.20;99.90;;;;;;2062025;28;20027;-77
2022/11/05 03:36:55;;;;;;;29.13;18.92;;;9.20;99.90;;;;;;2062770;28;20034;-74
2022/11/05 03:38:02;;;;;;;30.95;19.08;;;9.20;99.90;;;;;;2047532;28;20488;-76
2022/11/05 03:39:07;;;;;;;30.50;19.02;;;9.30;99.90;;;;;;2055678;29;20028;-79
2022/11/05 03:40:10;;;;;;;26.98;17.52;;;9.30;99.90;;;;;;2056457;28;20046;-78
2022/11/05 03:41:14;;;;;;;31.80;19.92;;;9.30;99.90;;;;;;2064116;28;20019;-76
2022/11/05 03:42:19;;;;;;;30.27;19.65;;;9.30;99.90;;;;;;2062971;28;20054;-75
2022/11/05 03:43:23;;;;;;;36.83;21.08;;;9.20;99.90;;;;;;2063018;28;20023;-77
2022/11/05 03:44:29;;;;;;;34.72;21.55;;;9.30;99.90;;;;;;2063393;28;20685;-76
2022/11/05 03:45:53;;;;;;;34.08;21.02;;;9.30;99.90;;;;;;2063383;28;20022;-77
2022/11/05 03:47:00;;;;;;;31.67;20.80;;;9.30;99.90;;;;;;2047949;28;20046;-79
2022/11/05 03:48:03;;;;;;;30.23;19.60;;;9.30;99.90;;;;;;2058513;28;20113;-75
2022/11/05 03:49:07;;;;;;;34.97;21.45;;;9.30;99.90;;;;;;2058961;28;20031;-79
2022/11/05 03:50:16;;;;;;;33.67;21.05;;;9.30;99.90;;;;;;2050681;28;20035;-78
2022/11/05 03:52:12;;;;;;;34.65;21.83;;;9.30;99.90;;;;;;2052321;28;20090;-75
2022/11/05 03:53:22;;;;;;;36.15;22.77;;;9.30;99.90;;;;;;2024942;28;20044;-78
2022/11/05 03:54:22;;;;;;;36.03;22.35;;;9.30;99.90;;;;;;2050181;28;20449;-78
2022/11/05 03:55:28;;;;;;;37.03;22.92;;;9.30;99.90;;;;;;2050586;29;20062;-79
2022/11/05 03:56:56;;;;;;;35.28;22.38;;;9.30;99.90;;;;;;2051464;28;20043;-81
2022/11/05 03:57:58;;;;;;;35.78;22.45;;;9.30;99.90;;;;;;2058925;28;20978;-78
2022/11/05 03:59:00;;;;;;;32.63;21.73;;;9.30;99.90;;;;;;2050236;28;20031;-79
2022/11/05 04:00:06;;;;;;;33.05;21.25;;;9.30;99.90;;;;;;2050201;28;20023;-79
2022/11/05 04:01:13;;;;;;;33.78;21.40;;;9.30;99.90;;;;;;2058958;28;20030;-79
2022/11/05 04:02:17;;;;;;;34.35;22.25;;;9.30;99.90;;;;;;2058184;28;20168;-78
2022/11/05 04:03:17;;;;;;;33.85;21.30;;;9.40;99.90;;;;;;2058079;28;20058;-78
2022/11/05 04:04:18;;;;;;;38.55;23.48;;;9.40;99.90;;;;;;2049846;28;20042;-79
2022/11/05 04:05:19;;;;;;;41.78;26.00;;;9.40;99.90;;;;;;2049593;29;20026;-79
2022/11/05 04:14:16;;;;;;;43.70;25.70;;;9.40;99.90;;;;;;2057517;28;20062;-79
2022/11/05 04:15:17;;;;;;;41.00;25.10;;;9.40;99.90;;;;;;2049709;29;20031;-79
2022/11/05 04:17:37;;;;;;;43.28;26.65;;;9.40;99.90;;;;;;2063098;28;20485;-75
2022/11/05 04:18:38;;;;;;;46.10;27.00;;;9.30;99.90;;;;;;2063903;28;20101;-76
2022/11/05 04:25:03;;;;;;;46.88;26.75;;;9.40;99.90;;;;;;2058944;28;20033;-77
2022/11/05 04:26:04;;;;;;;40.97;26.23;;;9.40;99.90;;;;;;2058875;28;20034;-79
2022/11/05 04:27:06;;;;;;;43.72;26.65;;;9.40;99.90;;;;;;2060012;28;20062;-77
2022/11/05 04:28:07;;;;;;;44.17;25.58;;;9.40;99.90;;;;;;2061117;28;20046;-77
2022/11/05 04:30:27;;;;;;;42.17;25.23;;;9.40;99.90;;;;;;2055052;28;20015;-77
2022/11/05 04:31:27;;;;;;;40.72;25.08;;;9.40;99.90;;;;;;2051888;28;20093;-77
2022/11/05 04:32:28;;;;;;;38.75;24.55;;;9.40;99.90;;;;;;2051781;29;20067;-80
2022/11/05 04:33:29;;;;;;;40.38;24.98;;;9.40;99.90;;;;;;2051663;28;20038;-79
2022/11/05 04:34:29;;;;;;;41.42;25.33;;;9.40;99.90;;;;;;2060229;28;20054;-77
2022/11/05 04:35:49;;;;;;;37.63;23.63;;;9.40;99.90;;;;;;2052808;28;20038;-78
2022/11/05 04:36:51;;;;;;;38.28;23.67;;;9.40;99.90;;;;;;2054001;28;20537;-77
2022/11/05 04:37:52;;;;;;;38.72;23.02;;;9.40;99.90;;;;;;2058205;28;20037;-78
2022/11/05 04:38:53;;;;;;;37.05;22.67;;;9.40;99.90;;;;;;2057814;28;20469;-78
2022/11/05 04:39:54;;;;;;;40.05;23.65;;;9.40;99.90;;;;;;2059446;28;20062;-78
2022/11/05 04:41:14;;;;;;;35.58;23.52;;;9.40;99.90;;;;;;2058470;28;20409;-76
2022/11/05 04:42:15;;;;;;;37.72;22.75;;;9.40;99.90;;;;;;2061130;28;20023;-78
2022/11/05 04:43:18;;;;;;;36.03;22.83;;;9.40;99.90;;;;;;2058254;28;20031;-76
2022/11/05 04:44:19;;;;;;;44.63;26.15;;;9.30;99.90;;;;;;2057693;28;20031;-77
2022/11/05 04:45:20;;;;;;;44.70;26.35;;;9.40;99.90;;;;;;2058861;28;20517;-80
2022/11/05 04:46:21;;;;;;;43.58;25.83;;;9.30;99.90;;;;;;2058889;28;20246;-78
2022/11/05 04:47:21;;;;;;;42.72;25.00;;;9.30;99.90;;;;;;2059318;28;20035;-79
2022/11/05 04:48:22;;;;;;;39.95;24.67;;;9.30;99.90;;;;;;2060907;28;20046;-77
2022/11/05 04:49:23;;;;;;;44.22;26.35;;;9.30;99.90;;;;;;2062394;28;20087;-77
2022/11/05 04:50:23;;;;;;;40.33;25.25;;;9.30;99.90;;;;;;2063330;28;20106;-76
2022/11/05 04:51:26;;;;;;;38.70;25.27;;;9.30;99.90;;;;;;2062227;28;20038;-78
2022/11/05 04:52:26;;;;;;;37.38;23.42;;;9.30;99.90;;;;;;2053231;28;20034;-76
2022/11/05 04:53:27;;;;;;;39.05;23.52;;;9.30;99.90;;;;;;2064585;28;20061;-74
2022/11/05 04:54:28;;;;;;;36.60;23.45;;;9.30;99.90;;;;;;2064752;28;20035;-76
2022/11/05 04:55:28;;;;;;;38.25;23.90;;;9.30;99.90;;;;;;2056399;28;20105;-79
2022/11/05 04:56:29;;;;;;;36.40;23.33;;;9.40;99.90;;;;;;2051020;28;20037;-78
2022/11/05 04:57:30;;;;;;;35.78;21.88;;;9.40;99.90;;;;;;2050391;28;20027;-77
2022/11/05 04:58:31;;;;;;;36.35;22.83;;;9.40;99.90;;;;;;2058044;28;20031;-80
2022/11/05 04:59:31;;;;;;;45.38;25.38;;;9.40;99.90;;;;;;2057792;28;20033;-78
2022/11/05 05:00:32;;;;;;;42.60;25.23;;;9.40;99.90;;;;;;2058088;28;20480;-79
2022/11/05 05:01:32;;;;;;;41.20;24.70;;;9.30;99.90;;;;;;2066311;28;20604;-79
2022/11/05 05:02:35;;;;;;;37.63;23.45;;;9.30;99.90;;;;;;2058885;28;20038;-77
2022/11/05 05:03:35;;;;;;;36.90;23.02;;;9.40;99.90;;;;;;2057749;28;20026;-77
2022/11/05 05:04:36;;;;;;;36.38;22.40;;;9.40;99.90;;;;;;2057846;28;20031;-80
2022/11/05 05:05:37;;;;;;;36.20;22.98;;;9.40;99.90;;;;;;2050218;29;20101;-78
2022/11/05 05:06:37;;;;;;;42.53;25.48;;;9.40;99.90;;;;;;2050784;29;20027;-79
2022/11/05 05:07:39;;;;;;;43.72;25.23;;;9.40;99.90;;;;;;2058987;28;20057;-79
2022/11/05 05:08:39;;;;;;;40.22;24.30;;;9.40;99.90;;;;;;2059656;28;20031;-78
2022/11/05 05:09:40;;;;;;;40.60;25.25;;;9.40;99.90;;;;;;2060391;28;20037;-79
2022/11/05 05:10:41;;;;;;;41.75;25.42;;;9.30;99.90;;;;;;2060909;28;20035;-77
2022/11/05 05:11:41;;;;;;;38.00;23.17;;;9.30;99.90;;;;;;2061288;28;20057;-77
2022/11/05 05:12:42;;;;;;;41.13;24.75;;;9.30;99.90;;;;;;2060516;28;20042;-79
2022/11/05 05:13:43;;;;;;;40.67;24.23;;;9.30;99.90;;;;;;2054258;28;20031;-78
2022/11/05 05:14:47;;;;;;;35.33;23.08;;;9.30;99.90;;;;;;2055523;28;20027;-78
2022/11/05 05:15:47;;;;;;;37.00;23.83;;;9.30;99.90;;;;;;2063674;28;20038;-75
2022/11/05 05:16:48;;;;;;;34.97;22.52;;;9.30;99.90;;;;;;2055546;28;20076;-77
2022/11/05 05:17:50;;;;;;;38.13;23.40;;;9.30;99.90;;;;;;2063406;28;20014;-76
2022/11/05 05:18:52;;;;;;;39.17;23.58;;;9.30;99.90;;;;;;2063373;28;20047;-75
2022/11/05 05:22:32;;;;;;;39.05;23.42;;;9.20;99.90;;;;;;2060702;28;20489;-77
2022/11/05 05:23:33;;;;;;;43.60;25.60;;;9.20;99.90;;;;;;2060680;28;20042;-77
2022/11/05 05:24:34;;;;;;;42.38;25.40;;;9.20;99.90;;;;;;2060290;28;20023;-77
2022/11/05 05:25:34;;;;;;;38.72;23.83;;;9.20;99.90;;;;;;2060424;28;20454;-78
2022/11/05 05:26:41;;;;;;;36.38;23.55;;;9.20;99.90;;;;;;2057813;28;20058;-76
2022/11/05 05:27:41;;;;;;;39.58;24.00;;;9.20;99.90;;;;;;2056839;28;20034;-76
2022/11/05 05:28:42;;;;;;;37.00;23.40;;;9.10;99.90;;;;;;2056620;28;20556;-77
2022/11/05 05:29:43;;;;;;;35.67;22.83;;;9.20;99.90;;;;;;2056201;28;20643;-76
2022/11/05 05:30:43;;;;;;;44.53;25.15;;;9.10;99.90;;;;;;2056026;28;20421;-76
2022/11/05 05:31:44;;;;;;;42.65;24.33;;;9.10;99.90;;;;;;2055843;28;20532;-76
2022/11/05 05:32:44;;;;;;;41.45;25.15;;;9.10;99.90;;;;;;2055968;28;20031;-77
2022/11/05 05:33:46;;;;;;;44.72;25.52;;;9.10;99.90;;;;;;2056041;28;20037;-76
2022/11/05 05:34:46;;;;;;;40.95;23.60;;;9.10;99.90;;;;;;2056002;28;20559;-77
2022/11/05 05:35:47;;;;;;;39.60;23.88;;;9.10;99.90;;;;;;2056372;28;20679;-76
2022/11/05 05:36:48;;;;;;;40.40;23.83;;;9.10;99.90;;;;;;2056848;28;20041;-75
2022/11/05 05:37:53;;;;;;;38.42;22.90;;;9.10;99.90;;;;;;2056228;28;20038;-77
2022/11/05 05:38:54;;;;;;;36.50;22.60;;;9.10;99.90;;;;;;2055868;28;20508;-76
2022/11/05 05:39:55;;;;;;;33.47;20.63;;;9.10;99.90;;;;;;2055684;28;20034;-77
2022/11/05 05:40:59;;;;;;;34.28;21.55;;;9.10;99.90;;;;;;2055974;28;20050;-76
2022/11/05 05:41:59;;;;;;;36.75;23.10;;;9.10;99.90;;;;;;2055742;28;20034;-76
2022/11/05 05:43:00;;;;;;;37.72;22.45;;;9.10;99.90;;;;;;2047770;28;20062;-78
2022/11/05 05:44:03;;;;;;;32.90;21.35;;;9.10;99.90;;;;;;2047466;29;20113;-78
2022/11/05 05:45:04;;;;;;;33.50;20.52;;;9.10;99.90;;;;;;2063457;28;20456;-76
2022/11/05 05:46:06;;;;;;;35.45;21.73;;;9.10;99.90;;;;;;2065310;28;20018;-80
2022/11/05 05:47:07;;;;;;;38.22;22.95;;;9.10;99.90;;;;;;2060335;28;20035;-79
2022/11/05 05:48:08;;;;;;;44.75;25.95;;;9.10;99.90;;;;;;2061514;28;20027;-78
2022/11/05 05:49:09;;;;;;;43.15;25.05;;;9.10;99.90;;;;;;2052016;28;20133;-78
2022/11/05 05:50:10;;;;;;;41.00;24.73;;;9.10;99.90;;;;;;2052312;28;20478;-79
2022/11/05 05:51:11;;;;;;;40.33;23.75;;;9.10;99.90;;;;;;2053628;28;20031;-79
2022/11/05 05:52:11;;;;;;;37.33;21.92;;;9.10;99.90;;;;;;2060877;28;20031;-78
2022/11/05 05:53:12;;;;;;;35.35;22.08;;;9.10;99.90;;;;;;2060786;28;20031;-78
2022/11/05 05:54:13;;;;;;;36.30;22.55;;;9.10;99.90;;;;;;2053674;28;20035;-79
2022/11/05 05:55:14;;;;;;;40.75;24.00;;;9.10;99.90;;;;;;2045119;28;20039;-79
2022/11/05 05:56:18;;;;;;;40.92;24.08;;;9.10;99.90;;;;;;2053492;28;20031;-80
2022/11/05 05:57:18;;;;;;;37.90;24.02;;;9.10;99.90;;;;;;2047770;28;20930;-78
2022/11/05 05:58:19;;;;;;;37.75;23.00;;;9.20;99.90;;;;;;2045747;29;20123;-80
2022/11/05 05:59:20;;;;;;;36.88;21.35;;;9.20;99.90;;;;;;2053252;28;20062;-81
2022/11/05 06:00:20;;;;;;;34.85;21.70;;;9.20;99.90;;;;;;2053202;28;20032;-79
2022/11/05 06:01:21;;;;;;;34.08;21.27;;;9.20;99.90;;;;;;2060076;28;20041;-79
2022/11/05 06:02:22;;;;;;;32.35;20.55;;;9.20;99.90;;;;;;2060858;28;20397;-78
2022/11/05 06:03:23;;;;;;;34.38;21.42;;;9.30;99.90;;;;;;2053137;28;20054;-79
2022/11/05 06:04:23;;;;;;;32.72;21.02;;;9.30;99.90;;;;;;2037386;28;20028;-79
2022/11/05 06:05:24;;;;;;;44.85;25.42;;;9.20;99.90;;;;;;2052787;29;20102;-79
2022/11/05 06:06:25;;;;;;;42.85;25.08;;;9.30;99.90;;;;;;2060243;28;20026;-79
2022/11/05 06:07:25;;;;;;;41.15;24.08;;;9.20;99.90;;;;;;2050262;28;20062;-74
2022/11/05 06:08:26;;;;;;;40.72;23.73;;;9.20;99.90;;;;;;2048405;29;20046;-73
2022/11/05 06:09:27;;;;;;;38.30;23.30;;;9.20;99.90;;;;;;2048800;28;20059;-75
2022/11/05 06:10:30;;;;;;;36.00;22.33;;;9.20;99.90;;;;;;2040704;29;20036;-76
2022/11/05 06:11:31;;;;;;;42.80;25.08;;;9.20;99.90;;;;;;2040859;29;20031;-74
2022/11/05 06:12:34;;;;;;;40.55;24.25;;;9.20;99.90;;;;;;2042016;29;20032;-75
2022/11/05 06:13:36;;;;;;;38.33;23.15;;;9.20;99.90;;;;;;2048443;29;20071;-75
2022/11/05 06:14:36;;;;;;;39.22;23.98;;;9.20;99.90;;;;;;2040282;29;20107;-73
2022/11/05 06:15:37;;;;;;;38.22;22.80;;;9.20;99.90;;;;;;2048560;29;20730;-75
2022/11/05 06:16:39;;;;;;;37.63;22.58;;;9.20;99.90;;;;;;2048833;29;20043;-76
2022/11/05 06:17:43;;;;;;;37.13;22.85;;;9.20;99.90;;;;;;2049207;28;20027;-75
2022/11/05 06:18:46;;;;;;;35.92;21.65;;;9.20;99.90;;;;;;2048619;29;20023;-76